createdAt,value
2022-12-28T00:00:31.740Z,6.40
2022-12-28T00:01:36.401Z,6.40
2022-12-28T00:02:39.373Z,6.40
2022-12-28T00:03:44.282Z,6.40
2022-12-28T00:04:47.311Z,6.40
2022-12-28T00:05:51.518Z,6.40
2022-12-28T00:06:54.668Z,6.40
2022-12-28T00:07:58.650Z,6.40
2022-12-28T00:09:02.743Z,6.40
2022-12-28T00:10:09.180Z,6.40
2022-12-28T00:11:26.381Z,6.40
2022-12-28T00:12:33.269Z,6.40
2022-12-28T00:13:37.923Z,6.40
2022-12-28T00:14:41.712Z,6.40
2022-12-28T00:15:44.779Z,6.40
2022-12-28T00:16:48.837Z,6.40
2022-12-28T00:17:51.836Z,6.40
2022-12-28T00:18:56.373Z,6.40
2022-12-28T00:20:00.581Z,6.40
2022-12-28T00:21:05.207Z,6.40
2022-12-28T00:22:09.110Z,6.40
2022-12-28T00:23:12.064Z,6.40
2022-12-28T00:24:20.988Z,6.40
2022-12-28T00:25:25.249Z,6.40
2022-12-28T00:26:32.010Z,6.40
2022-12-28T00:27:34.715Z,6.40
2022-12-28T00:28:39.071Z,6.40
2022-12-28T00:29:41.813Z,6.40
2022-12-28T00:30:45.597Z,6.40
2022-12-28T00:31:50.099Z,6.40
2022-12-28T00:32:53.049Z,6.40
2022-12-28T00:33:56.780Z,6.50
2022-12-28T00:34:59.479Z,6.50
2022-12-28T00:36:04.611Z,6.50
2022-12-28T00:37:13.230Z,6.50
2022-12-28T00:38:15.982Z,6.50
2022-12-28T00:39:20.305Z,6.50
2022-12-28T00:40:24.421Z,6.50
2022-12-28T00:41:27.966Z,6.50
2022-12-28T00:42:30.745Z,6.50
2022-12-28T00:43:35.193Z,6.50
2022-12-28T00:44:38.946Z,6.50
2022-12-28T00:45:45.614Z,6.50
2022-12-28T00:46:49.288Z,6.50
2022-12-28T00:47:53.939Z,6.60
2022-12-28T00:48:57.585Z,6.60
2022-12-28T00:50:00.192Z,6.60
2022-12-28T00:51:09.499Z,6.60
2022-12-28T00:52:15.039Z,6.60
2022-12-28T00:53:19.243Z,6.60
2022-12-28T00:54:22.014Z,6.60
2022-12-28T00:55:27.175Z,6.60
2022-12-28T00:56:29.787Z,6.60
2022-12-28T00:58:06.356Z,6.70
2022-12-28T00:59:13.880Z,6.70
2022-12-28T01:00:18.444Z,6.70
2022-12-28T01:01:25.425Z,6.70
2022-12-28T01:02:28.299Z,6.70
2022-12-28T01:03:32.698Z,6.70
2022-12-28T01:04:35.426Z,6.70
2022-12-28T01:05:41.058Z,6.70
2022-12-28T01:06:44.408Z,6.70
2022-12-28T01:07:48.371Z,6.70
2022-12-28T01:08:52.812Z,6.80
2022-12-28T01:09:59.118Z,6.80
2022-12-28T01:11:08.761Z,6.80
2022-12-28T01:12:12.587Z,6.80
2022-12-28T01:13:15.359Z,6.80
2022-12-28T01:14:18.955Z,6.80
2022-12-28T01:15:22.720Z,6.80
2022-12-28T01:16:29.702Z,6.80
2022-12-28T01:17:33.525Z,6.80
2022-12-28T01:18:37.551Z,6.90
2022-12-28T01:19:40.160Z,6.90
2022-12-28T01:20:44.030Z,6.90
2022-12-28T01:21:49.533Z,6.90
2022-12-28T01:22:53.391Z,6.90
2022-12-28T01:23:58.478Z,6.90
2022-12-28T01:25:02.197Z,6.90
2022-12-28T01:26:07.184Z,6.90
2022-12-28T01:27:10.872Z,6.90
2022-12-28T01:28:14.643Z,6.90
2022-12-28T01:29:18.466Z,6.90
2022-12-28T01:30:21.512Z,6.90
2022-12-28T01:31:25.251Z,7.00
2022-12-28T01:32:27.836Z,7.00
2022-12-28T01:33:32.300Z,7.00
2022-12-28T01:34:34.951Z,7.00
2022-12-28T01:35:38.878Z,7.00
2022-12-28T01:36:41.785Z,7.00
2022-12-28T01:37:45.674Z,7.00
2022-12-28T01:38:52.216Z,7.00
2022-12-28T01:39:56.477Z,7.00
2022-12-28T01:40:59.183Z,7.00
2022-12-28T01:42:04.511Z,7.10
2022-12-28T01:43:13.928Z,7.10
2022-12-28T01:44:43.849Z,7.10
2022-12-28T01:45:52.980Z,7.10
2022-12-28T01:47:01.983Z,7.10
2022-12-28T01:48:06.180Z,7.10
2022-12-28T01:49:15.216Z,7.10
2022-12-28T01:50:24.675Z,7.10
2022-12-28T01:51:30.379Z,7.10
2022-12-28T01:52:39.198Z,7.10
2022-12-28T01:53:42.283Z,7.20
2022-12-28T01:54:52.412Z,7.20
2022-12-28T01:55:56.421Z,7.20
2022-12-28T01:56:59.513Z,7.20
2022-12-28T01:58:08.916Z,7.20
2022-12-28T01:59:12.230Z,7.20
2022-12-28T02:00:18.864Z,7.20
2022-12-28T02:01:21.865Z,7.20
2022-12-28T02:02:26.139Z,7.20
2022-12-28T02:03:33.951Z,7.20
2022-12-28T02:04:36.707Z,7.20
2022-12-28T02:05:44.904Z,7.20
2022-12-28T02:06:48.501Z,7.20
2022-12-28T02:08:03.571Z,7.20
2022-12-28T02:09:14.661Z,7.20
2022-12-28T02:10:42.837Z,7.20
2022-12-28T02:11:44.249Z,7.30
2022-12-28T02:12:48.421Z,7.30
2022-12-28T02:13:55.812Z,7.20
2022-12-28T02:15:00.128Z,7.20
2022-12-28T02:16:06.073Z,7.20
2022-12-28T02:17:13.400Z,7.20
2022-12-28T02:18:19.422Z,7.20
2022-12-28T02:19:35.571Z,7.20
2022-12-28T02:20:57.391Z,7.20
2022-12-28T02:22:32.395Z,7.20
2022-12-28T02:23:58.903Z,7.20
2022-12-28T02:25:32.644Z,7.20
2022-12-28T02:26:58.150Z,7.20
2022-12-28T02:28:19.196Z,7.20
2022-12-28T02:30:07.611Z,7.20
2022-12-28T02:31:16.776Z,7.20
2022-12-28T02:32:51.262Z,7.30
2022-12-28T02:34:06.139Z,7.20
2022-12-28T02:35:18.733Z,7.20
2022-12-28T02:36:28.135Z,7.20
2022-12-28T02:37:37.644Z,7.20
2022-12-28T02:38:47.732Z,7.20
2022-12-28T02:39:57.625Z,7.20
2022-12-28T02:41:05.781Z,7.30
2022-12-28T02:42:11.093Z,7.20
2022-12-28T02:43:14.120Z,7.20
2022-12-28T02:44:38.175Z,7.20
2022-12-28T02:46:02.445Z,7.20
2022-12-28T02:47:24.322Z,7.20
2022-12-28T02:48:45.774Z,7.20
2022-12-28T02:50:08.016Z,7.20
2022-12-28T02:51:44.113Z,7.20
2022-12-28T02:53:20.912Z,7.20
2022-12-28T02:55:11.716Z,7.30
2022-12-28T02:56:33.828Z,7.20
2022-12-28T02:58:08.037Z,7.30
2022-12-28T02:59:41.309Z,7.30
2022-12-28T03:01:00.588Z,7.30
2022-12-28T03:02:35.401Z,7.30
2022-12-28T03:03:51.063Z,7.30
2022-12-28T03:05:11.987Z,7.30
2022-12-28T03:06:42.097Z,7.40
2022-12-28T03:08:15.051Z,7.40
2022-12-28T03:09:27.288Z,7.40
2022-12-28T03:10:52.281Z,7.40
2022-12-28T03:12:04.737Z,7.40
2022-12-28T03:13:30.238Z,7.40
2022-12-28T03:14:43.991Z,7.40
2022-12-28T03:15:48.839Z,7.40
2022-12-28T03:17:14.107Z,7.40
2022-12-28T03:18:39.321Z,7.40
2022-12-28T03:20:06.139Z,7.50
2022-12-28T03:21:30.852Z,7.40
2022-12-28T03:22:55.573Z,7.40
2022-12-28T03:24:19.892Z,7.40
2022-12-28T03:25:48.011Z,7.50
2022-12-28T03:27:12.277Z,7.50
2022-12-28T03:28:45.713Z,7.50
2022-12-28T03:30:19.062Z,7.50
2022-12-28T03:31:26.918Z,7.50
2022-12-28T03:32:33.516Z,7.50
2022-12-28T03:33:41.128Z,7.50
2022-12-28T03:34:44.013Z,7.50
2022-12-28T03:35:57.045Z,7.50
2022-12-28T03:37:10.977Z,7.50
2022-12-28T03:38:28.299Z,7.50
2022-12-28T03:39:40.622Z,7.50
2022-12-28T03:40:50.994Z,7.60
2022-12-28T03:42:20.070Z,7.60
2022-12-28T03:43:41.140Z,7.60
2022-12-28T03:44:56.024Z,7.60
2022-12-28T03:46:07.873Z,7.60
2022-12-28T03:47:15.556Z,7.70
2022-12-28T03:48:18.762Z,7.70
2022-12-28T03:49:24.446Z,7.70
2022-12-28T03:50:27.668Z,7.70
2022-12-28T03:51:33.641Z,7.70
2022-12-28T03:52:42.585Z,7.80
2022-12-28T03:53:48.447Z,7.80
2022-12-28T03:54:54.814Z,7.80
2022-12-28T03:56:12.298Z,7.80
2022-12-28T03:57:17.148Z,7.80
2022-12-28T03:58:23.709Z,7.80
2022-12-28T03:59:26.323Z,7.90
2022-12-28T04:00:30.904Z,7.90
2022-12-28T04:01:38.138Z,7.90
2022-12-28T04:02:46.051Z,7.90
2022-12-28T04:03:49.007Z,7.90
2022-12-28T04:04:52.945Z,7.90
2022-12-28T04:05:56.032Z,7.90
2022-12-28T04:07:00.581Z,8.00
2022-12-28T04:08:03.528Z,8.00
2022-12-28T04:09:07.506Z,8.00
2022-12-28T04:10:14.552Z,8.00
2022-12-28T04:11:18.568Z,8.00
2022-12-28T04:12:28.496Z,8.00
2022-12-28T04:13:50.179Z,8.10
2022-12-28T04:14:53.828Z,8.10
2022-12-28T04:16:00.316Z,8.10
2022-12-28T04:17:04.182Z,8.10
2022-12-28T04:18:09.517Z,8.10
2022-12-28T04:19:12.196Z,8.10
2022-12-28T04:20:16.131Z,8.10
2022-12-28T04:21:19.058Z,8.10
2022-12-28T04:22:22.733Z,8.10
2022-12-28T04:23:26.431Z,8.20
2022-12-28T04:24:42.331Z,8.20
2022-12-28T04:25:45.202Z,8.20
2022-12-28T04:26:49.022Z,8.20
2022-12-28T04:27:52.408Z,8.20
2022-12-28T04:29:14.696Z,8.20
2022-12-28T04:30:38.095Z,8.20
2022-12-28T04:31:40.818Z,8.20
2022-12-28T04:32:50.351Z,8.20
2022-12-28T04:33:56.572Z,8.20
2022-12-28T04:35:00.907Z,8.20
2022-12-28T04:36:16.980Z,8.10
2022-12-28T04:37:25.437Z,8.10
2022-12-28T04:38:29.277Z,8.10
2022-12-28T04:39:56.068Z,8.10
2022-12-28T04:40:57.035Z,8.10
2022-12-28T04:42:00.130Z,8.10
2022-12-28T04:43:03.973Z,8.10
2022-12-28T04:44:07.458Z,8.10
2022-12-28T04:45:15.696Z,8.10
2022-12-28T04:46:21.678Z,8.10
2022-12-28T04:47:25.440Z,8.10
2022-12-28T04:48:28.536Z,8.10
2022-12-28T04:49:34.061Z,8.10
2022-12-28T04:50:37.858Z,8.10
2022-12-28T04:51:41.753Z,8.10
2022-12-28T04:52:44.613Z,8.10
2022-12-28T04:53:49.058Z,8.10
2022-12-28T04:54:51.914Z,8.10
2022-12-28T04:55:58.509Z,8.10
2022-12-28T04:57:01.235Z,8.10
2022-12-28T04:58:05.567Z,8.10
2022-12-28T04:59:08.755Z,8.10
2022-12-28T05:00:15.259Z,8.10
2022-12-28T05:01:20.190Z,8.10
2022-12-28T05:02:24.305Z,8.10
2022-12-28T05:03:27.448Z,8.10
2022-12-28T05:04:32.650Z,8.20
2022-12-28T05:05:37.157Z,8.20
2022-12-28T05:06:41.668Z,8.20
2022-12-28T05:07:44.337Z,8.20
2022-12-28T05:08:49.127Z,8.20
2022-12-28T05:09:51.908Z,8.20
2022-12-28T05:10:55.605Z,8.20
2022-12-28T05:11:58.287Z,8.20
2022-12-28T05:13:02.206Z,8.20
2022-12-28T05:14:04.825Z,8.20
2022-12-28T05:15:10.131Z,8.20
2022-12-28T05:16:15.896Z,8.20
2022-12-28T05:17:19.802Z,8.20
2022-12-28T05:18:22.484Z,8.30
2022-12-28T05:19:26.274Z,8.30
2022-12-28T05:20:30.539Z,8.30
2022-12-28T05:21:34.377Z,8.30
2022-12-28T05:22:40.863Z,8.30
2022-12-28T05:23:46.080Z,8.30
2022-12-28T05:24:49.215Z,8.30
2022-12-28T05:25:55.187Z,8.40
2022-12-28T05:26:58.988Z,8.40
2022-12-28T05:28:01.747Z,8.40
2022-12-28T05:29:05.893Z,8.40
2022-12-28T05:30:10.571Z,8.40
2022-12-28T05:31:17.436Z,8.40
2022-12-28T05:32:21.445Z,8.40
2022-12-28T05:33:24.466Z,8.40
2022-12-28T05:34:28.560Z,8.40
2022-12-28T05:35:32.735Z,8.50
2022-12-28T05:36:38.283Z,8.50
2022-12-28T05:37:40.928Z,8.50
2022-12-28T05:38:45.770Z,8.50
2022-12-28T05:39:49.709Z,8.50
2022-12-28T05:40:52.948Z,8.50
2022-12-28T05:42:00.284Z,8.50
2022-12-28T05:43:03.406Z,8.50
2022-12-28T05:44:07.715Z,8.50
2022-12-28T05:45:11.624Z,8.50
2022-12-28T05:46:19.314Z,8.50
2022-12-28T05:47:22.060Z,8.50
2022-12-28T05:48:25.884Z,8.50
2022-12-28T05:49:28.994Z,8.50
2022-12-28T05:50:34.471Z,8.50
2022-12-28T05:51:39.757Z,8.50
2022-12-28T05:52:44.213Z,8.50
2022-12-28T05:53:47.708Z,8.50
2022-12-28T05:54:51.539Z,8.50
2022-12-28T05:55:54.130Z,8.50
2022-12-28T05:56:58.398Z,8.50
2022-12-28T05:58:00.991Z,8.60
2022-12-28T05:59:07.506Z,8.60
2022-12-28T06:00:11.810Z,8.60
2022-12-28T06:01:18.843Z,8.60
2022-12-28T06:02:24.890Z,8.60
2022-12-28T06:03:28.956Z,8.60
2022-12-28T06:04:32.032Z,8.60
2022-12-28T06:05:38.080Z,8.60
2022-12-28T06:06:41.173Z,8.60
2022-12-28T06:07:45.235Z,8.60
2022-12-28T06:08:49.563Z,8.60
2022-12-28T06:09:53.277Z,8.60
2022-12-28T06:11:01.744Z,8.60
2022-12-28T06:12:07.139Z,8.60
2022-12-28T06:13:10.045Z,8.60
2022-12-28T06:14:13.807Z,8.60
2022-12-28T06:15:16.858Z,8.60
2022-12-28T06:16:22.765Z,8.60
2022-12-28T06:17:25.712Z,8.60
2022-12-28T06:18:31.216Z,8.70
2022-12-28T06:19:35.544Z,8.70
2022-12-28T06:20:39.738Z,8.70
2022-12-28T06:21:44.019Z,8.70
2022-12-28T06:22:46.686Z,8.70
2022-12-28T06:23:50.922Z,8.70
2022-12-28T06:24:53.693Z,8.70
2022-12-28T06:26:00.677Z,8.70
2022-12-28T06:27:03.241Z,8.70
2022-12-28T06:28:06.939Z,8.80
2022-12-28T06:29:10.091Z,8.80
2022-12-28T06:30:15.622Z,8.80
2022-12-28T06:31:20.728Z,8.80
2022-12-28T06:32:29.764Z,8.80
2022-12-28T06:33:32.305Z,8.80
2022-12-28T06:34:36.612Z,8.80
2022-12-28T06:35:42.777Z,8.80
2022-12-28T06:36:48.225Z,8.80
2022-12-28T06:37:51.441Z,8.80
2022-12-28T06:38:58.078Z,8.80
2022-12-28T06:40:01.054Z,8.80
2022-12-28T06:41:14.501Z,8.80
2022-12-28T06:42:18.705Z,8.80
2022-12-28T06:43:21.551Z,8.80
2022-12-28T06:44:25.342Z,8.80
2022-12-28T06:45:28.349Z,8.80
2022-12-28T06:46:32.932Z,8.80
2022-12-28T06:47:37.216Z,8.80
2022-12-28T06:48:41.764Z,8.80
2022-12-28T06:49:44.508Z,8.80
2022-12-28T06:50:58.454Z,8.80
2022-12-28T06:52:02.665Z,8.80
2022-12-28T06:53:05.423Z,8.80
2022-12-28T06:54:10.783Z,8.80
2022-12-28T06:55:13.527Z,8.80
2022-12-28T06:56:19.473Z,8.80
2022-12-28T06:57:22.403Z,8.80
2022-12-28T06:58:27.092Z,8.80
2022-12-28T06:59:30.993Z,8.80
2022-12-28T07:00:34.017Z,8.80
2022-12-28T07:01:40.386Z,8.80
2022-12-28T07:02:43.454Z,8.80
2022-12-28T07:03:49.115Z,8.80
2022-12-28T07:04:53.034Z,8.80
2022-12-28T07:06:00.951Z,8.80
2022-12-28T07:07:04.937Z,8.80
2022-12-28T07:08:12.383Z,8.80
2022-12-28T07:09:18.057Z,8.80
2022-12-28T07:10:20.906Z,8.80
2022-12-28T07:11:26.474Z,8.80
2022-12-28T07:12:37.031Z,8.80
2022-12-28T07:13:41.482Z,8.80
2022-12-28T07:14:44.150Z,8.80
2022-12-28T07:15:48.322Z,8.80
2022-12-28T07:16:50.976Z,8.80
2022-12-28T07:17:54.837Z,8.80
2022-12-28T07:18:59.644Z,8.80
2022-12-28T07:20:03.252Z,8.80
2022-12-28T07:21:10.663Z,8.80
2022-12-28T07:22:18.878Z,8.80
2022-12-28T07:28:12.964Z,8.80
2022-12-28T07:29:19.891Z,8.80
2022-12-28T07:30:22.683Z,8.80
2022-12-28T07:31:30.864Z,8.80
2022-12-28T07:32:37.450Z,8.80
2022-12-28T07:33:42.166Z,8.90
2022-12-28T07:34:45.055Z,8.90
2022-12-28T07:35:49.037Z,8.90
2022-12-28T07:36:54.771Z,8.90
2022-12-28T07:37:58.155Z,8.90
2022-12-28T07:39:05.541Z,8.90
2022-12-28T07:40:12.743Z,8.90
2022-12-28T07:41:20.618Z,8.90
2022-12-28T07:42:23.274Z,8.90
2022-12-28T07:43:26.940Z,8.90
2022-12-28T07:44:34.210Z,8.90
2022-12-28T07:45:39.706Z,8.90
2022-12-28T07:46:43.523Z,8.90
2022-12-28T07:47:46.331Z,8.90
2022-12-28T07:48:51.508Z,8.90
2022-12-28T07:49:54.430Z,9.00
2022-12-28T07:50:58.321Z,8.90
2022-12-28T07:52:04.063Z,9.00
2022-12-28T07:53:06.861Z,9.00
2022-12-28T07:54:11.330Z,9.00
2022-12-28T07:55:14.256Z,9.00
2022-12-28T07:56:19.455Z,9.00
2022-12-28T07:57:22.164Z,9.00
2022-12-28T07:58:25.975Z,9.00
2022-12-28T07:59:31.255Z,9.00
2022-12-28T08:00:34.375Z,9.00
2022-12-28T08:01:38.850Z,9.00
2022-12-28T08:02:41.781Z,9.00
2022-12-28T08:03:45.952Z,9.00
2022-12-28T08:04:52.216Z,9.00
2022-12-28T08:05:56.369Z,9.10
2022-12-28T08:07:00.370Z,9.10
2022-12-28T08:08:04.923Z,9.10
2022-12-28T08:09:13.556Z,9.10
2022-12-28T08:10:16.728Z,9.10
2022-12-28T08:11:23.939Z,9.10
2022-12-28T08:12:26.830Z,9.10
2022-12-28T08:13:32.986Z,9.10
2022-12-28T08:14:35.560Z,9.10
2022-12-28T08:15:39.362Z,9.10
2022-12-28T08:16:45.516Z,9.10
2022-12-28T08:17:48.560Z,9.10
2022-12-28T08:18:53.090Z,9.10
2022-12-28T08:19:58.029Z,9.10
2022-12-28T08:21:04.431Z,9.10
2022-12-28T08:22:11.267Z,9.10
2022-12-28T08:23:16.068Z,9.20
2022-12-28T08:24:21.588Z,9.20
2022-12-28T08:25:26.157Z,9.20
2022-12-28T08:26:33.130Z,9.20
2022-12-28T08:27:38.712Z,9.20
2022-12-28T08:28:47.231Z,9.20
2022-12-28T08:29:52.072Z,9.20
2022-12-28T08:30:55.583Z,9.20
2022-12-28T08:32:01.719Z,9.20
2022-12-28T08:33:05.275Z,9.20
2022-12-28T08:34:12.378Z,9.20
2022-12-28T08:35:16.345Z,9.20
2022-12-28T08:36:19.108Z,9.20
2022-12-28T08:37:22.903Z,9.20
2022-12-28T08:38:27.220Z,9.20
2022-12-28T08:39:30.952Z,9.30
2022-12-28T08:40:35.492Z,9.30
2022-12-28T08:41:41.839Z,9.30
2022-12-28T08:42:46.022Z,9.30
2022-12-28T08:43:53.982Z,9.30
2022-12-28T08:45:01.162Z,9.30
2022-12-28T08:46:16.545Z,9.30
2022-12-28T08:47:25.663Z,9.30
2022-12-28T08:48:35.386Z,9.30
2022-12-28T08:49:41.237Z,9.30
2022-12-28T08:50:44.608Z,9.30
2022-12-28T08:51:59.549Z,9.30
2022-12-28T08:53:19.349Z,9.40
2022-12-28T08:54:31.176Z,9.30
2022-12-28T08:55:38.283Z,9.30
2022-12-28T08:56:46.999Z,9.40
2022-12-28T08:57:49.687Z,9.40
2022-12-28T08:58:54.011Z,9.40
2022-12-28T08:59:56.798Z,9.40
2022-12-28T09:01:11.066Z,9.40
2022-12-28T09:02:15.963Z,9.40
2022-12-28T09:03:19.002Z,9.40
2022-12-28T09:04:24.986Z,9.40
2022-12-28T09:05:28.950Z,9.40
2022-12-28T09:06:37.394Z,9.40
2022-12-28T09:07:42.659Z,9.40
2022-12-28T09:09:04.832Z,9.40
2022-12-28T09:10:13.536Z,9.40
2022-12-28T09:11:18.657Z,9.40
2022-12-28T09:12:23.870Z,9.40
2022-12-28T09:13:29.943Z,9.40
2022-12-28T09:14:35.937Z,9.40
2022-12-28T09:15:39.543Z,9.40
2022-12-28T09:16:45.533Z,9.40
2022-12-28T09:17:50.560Z,9.40
2022-12-28T09:18:58.290Z,9.50
2022-12-28T09:20:03.350Z,9.50
2022-12-28T09:21:09.840Z,9.50
2022-12-28T09:22:14.645Z,9.50
2022-12-28T09:29:22.319Z,9.50
2022-12-28T09:31:16.936Z,9.50
2022-12-28T09:34:37.297Z,9.50
2022-12-28T09:35:41.871Z,9.50
2022-12-28T09:36:48.439Z,9.40
2022-12-28T09:37:53.624Z,9.40
2022-12-28T09:38:59.127Z,9.40
2022-12-28T09:40:04.515Z,9.40
2022-12-28T09:41:18.976Z,9.40
2022-12-28T09:42:29.574Z,9.40
2022-12-28T09:43:36.090Z,9.40
2022-12-28T09:44:58.661Z,9.40
2022-12-28T09:46:03.399Z,9.40
2022-12-28T09:47:21.945Z,9.40
2022-12-28T09:48:28.376Z,9.40
2022-12-28T09:49:43.697Z,9.40
2022-12-28T09:50:51.641Z,9.40
2022-12-28T09:52:03.792Z,9.40
2022-12-28T09:53:31.822Z,9.40
2022-12-28T09:54:35.829Z,9.40
2022-12-28T09:55:44.833Z,9.40
2022-12-28T09:56:51.988Z,9.40
2022-12-28T09:57:59.794Z,9.50
2022-12-28T09:59:09.131Z,9.50
2022-12-28T10:00:21.182Z,9.50
2022-12-28T10:01:26.002Z,9.50
2022-12-28T10:02:35.613Z,9.50
2022-12-28T10:03:43.569Z,9.50
2022-12-28T10:04:55.568Z,9.50
2022-12-28T10:06:01.826Z,9.50
2022-12-28T10:07:13.602Z,9.60
2022-12-28T10:08:21.905Z,9.60
2022-12-28T10:09:39.947Z,9.60
2022-12-28T10:10:48.941Z,9.60
2022-12-28T10:11:55.349Z,9.60
2022-12-28T10:13:45.579Z,9.60
2022-12-28T10:14:40.981Z,9.60
2022-12-28T10:15:44.965Z,9.70
2022-12-28T10:16:50.560Z,9.70
2022-12-28T10:17:55.261Z,9.70
2022-12-28T10:19:01.204Z,9.70
2022-12-28T10:20:08.090Z,9.70
2022-12-28T10:21:12.602Z,9.70
2022-12-28T10:22:19.786Z,9.70
2022-12-28T10:23:27.937Z,9.70
2022-12-28T10:24:32.457Z,9.70
2022-12-28T10:25:37.411Z,9.70
2022-12-28T10:26:43.848Z,9.80
2022-12-28T10:27:47.722Z,9.80
2022-12-28T10:28:55.659Z,9.80
2022-12-28T10:30:03.843Z,9.80
2022-12-28T10:31:13.283Z,9.80
2022-12-28T10:32:16.073Z,9.80
2022-12-28T10:33:22.328Z,9.80
2022-12-28T10:34:25.553Z,9.80
2022-12-28T10:35:33.346Z,9.80
2022-12-28T10:36:37.030Z,9.80
2022-12-28T10:37:46.171Z,9.80
2022-12-28T10:38:52.444Z,9.80
2022-12-28T10:39:59.390Z,9.80
2022-12-28T10:41:07.011Z,9.90
2022-12-28T10:42:25.142Z,9.90
2022-12-28T10:43:35.492Z,9.90
2022-12-28T10:44:41.678Z,9.80
2022-12-28T10:45:52.682Z,9.80
2022-12-28T10:47:00.173Z,9.90
2022-12-28T10:48:10.508Z,9.80
2022-12-28T10:49:16.035Z,9.80
2022-12-28T10:50:43.083Z,9.80
2022-12-28T10:52:05.719Z,9.80
2022-12-28T10:53:20.847Z,9.80
2022-12-28T10:54:30.699Z,9.80
2022-12-28T10:55:36.055Z,9.70
2022-12-28T10:56:50.288Z,9.70
2022-12-28T10:58:28.092Z,9.70
2022-12-28T10:59:26.333Z,9.70
2022-12-28T11:00:31.514Z,9.70
2022-12-28T11:01:39.251Z,9.60
2022-12-28T11:02:45.490Z,9.60
2022-12-28T11:04:05.128Z,9.60
2022-12-28T11:05:23.075Z,9.60
2022-12-28T11:06:31.267Z,9.60
2022-12-28T11:07:37.559Z,9.60
2022-12-28T11:08:42.683Z,9.50
2022-12-28T11:09:46.402Z,9.50
2022-12-28T11:10:57.863Z,9.50
2022-12-28T11:12:24.768Z,9.50
2022-12-28T11:13:27.667Z,9.50
2022-12-28T11:14:35.682Z,9.50
2022-12-28T11:15:40.413Z,9.50
2022-12-28T11:16:45.886Z,9.50
2022-12-28T11:17:56.943Z,9.50
2022-12-28T11:19:01.276Z,9.50
2022-12-28T11:20:15.260Z,9.40
2022-12-28T11:21:23.270Z,9.50
2022-12-28T11:22:30.005Z,9.50
2022-12-28T11:23:34.834Z,9.50
2022-12-28T11:24:39.988Z,9.50
2022-12-28T11:25:42.614Z,9.50
2022-12-28T11:26:50.123Z,9.40
2022-12-28T11:27:52.989Z,9.50
2022-12-28T11:28:56.873Z,9.50
2022-12-28T11:29:59.738Z,9.50
2022-12-28T11:31:05.982Z,9.50
2022-12-28T11:32:20.463Z,9.50
2022-12-28T11:33:34.792Z,9.40
2022-12-28T11:34:39.823Z,9.50
2022-12-28T11:35:59.533Z,9.40
2022-12-28T11:37:03.845Z,9.40
2022-12-28T11:38:07.937Z,9.40
2022-12-28T11:39:42.628Z,9.40
2022-12-28T11:40:52.614Z,9.40
2022-12-28T11:42:28.082Z,9.40
2022-12-28T11:43:52.078Z,9.40
2022-12-28T11:44:55.833Z,9.40
2022-12-28T11:46:00.662Z,9.40
2022-12-28T11:47:23.625Z,9.40
2022-12-28T11:48:49.873Z,9.40
2022-12-28T11:49:54.788Z,9.40
2022-12-28T11:51:05.831Z,9.40
2022-12-28T11:52:46.568Z,9.40
2022-12-28T11:53:58.044Z,9.40
2022-12-28T11:55:23.211Z,9.40
2022-12-28T11:56:49.597Z,9.40
2022-12-28T11:57:53.963Z,9.40
2022-12-28T11:59:20.810Z,9.40
2022-12-28T12:00:49.231Z,9.40
2022-12-28T12:01:58.646Z,9.40
2022-12-28T12:03:02.361Z,9.40
2022-12-28T12:04:43.001Z,9.40
2022-12-28T12:05:51.571Z,9.40
2022-12-28T12:07:31.612Z,9.40
2022-12-28T12:08:43.244Z,9.40
2022-12-28T12:10:07.520Z,9.40
2022-12-28T12:11:33.481Z,9.40
2022-12-28T12:12:47.681Z,9.40
2022-12-28T12:13:54.182Z,9.40
2022-12-28T12:15:02.822Z,9.40
2022-12-28T12:16:21.405Z,9.30
2022-12-28T12:17:39.706Z,9.40
2022-12-28T12:18:50.547Z,9.30
2022-12-28T12:20:00.933Z,9.30
2022-12-28T12:21:15.159Z,9.30
2022-12-28T12:22:23.456Z,9.30
2022-12-28T12:23:40.452Z,9.30
2022-12-28T12:24:49.117Z,9.30
2022-12-28T12:25:55.068Z,9.30
2022-12-28T12:27:13.505Z,9.30
2022-12-28T12:28:36.947Z,9.30
2022-12-28T12:29:45.276Z,9.30
2022-12-28T12:30:48.943Z,9.30
2022-12-28T12:32:01.399Z,9.30
2022-12-28T12:33:10.858Z,9.30
2022-12-28T12:34:21.216Z,9.30
2022-12-28T12:35:28.431Z,9.30
2022-12-28T12:37:01.838Z,9.30
2022-12-28T12:38:14.620Z,9.30
2022-12-28T12:40:01.940Z,9.30
2022-12-28T12:41:27.823Z,9.30
2022-12-28T12:42:51.073Z,9.30
2022-12-28T12:44:22.965Z,9.30
2022-12-28T12:45:37.748Z,9.30
2022-12-28T12:47:26.163Z,9.40
2022-12-28T12:49:01.251Z,9.30
2022-12-28T12:50:33.557Z,9.30
2022-12-28T12:51:47.199Z,9.40
2022-12-28T12:53:04.650Z,9.40
2022-12-28T12:54:27.676Z,9.40
2022-12-28T12:55:52.168Z,9.40
2022-12-28T12:57:01.883Z,9.40
2022-12-28T12:58:17.655Z,9.40
2022-12-28T12:59:51.543Z,9.40
2022-12-28T13:01:20.342Z,9.40
2022-12-28T13:02:45.384Z,9.30
2022-12-28T13:03:50.988Z,9.40
2022-12-28T13:04:53.780Z,9.40
2022-12-28T13:05:59.882Z,9.40
2022-12-28T13:07:07.554Z,9.30
2022-12-28T13:08:25.226Z,9.40
2022-12-28T13:09:31.664Z,9.30
2022-12-28T13:10:37.939Z,9.30
2022-12-28T13:11:42.209Z,9.30
2022-12-28T13:12:45.329Z,9.40
2022-12-28T13:13:55.366Z,9.40
2022-12-28T13:15:00.821Z,9.40
2022-12-28T13:16:10.270Z,9.40
2022-12-28T13:17:21.438Z,9.40
2022-12-28T13:19:48.295Z,9.30
2022-12-28T13:20:56.809Z,9.40
2022-12-28T13:22:00.600Z,9.40
2022-12-28T13:23:03.320Z,9.40
2022-12-28T13:24:24.298Z,9.30
2022-12-28T13:25:31.655Z,9.40
2022-12-28T13:26:35.688Z,9.40
2022-12-28T13:27:41.420Z,9.40
2022-12-28T13:28:53.262Z,9.40
2022-12-28T13:29:57.308Z,9.40
2022-12-28T13:31:09.336Z,9.40
2022-12-28T13:32:29.340Z,9.40
2022-12-28T13:33:35.279Z,9.40
2022-12-28T13:34:41.612Z,9.40
2022-12-28T13:35:44.832Z,9.40
2022-12-28T13:36:54.527Z,9.50
2022-12-28T13:38:03.189Z,9.50
2022-12-28T13:39:14.906Z,9.50
2022-12-28T13:40:20.596Z,9.50
2022-12-28T13:41:27.701Z,9.50
2022-12-28T13:42:46.424Z,9.50
2022-12-28T13:44:37.005Z,9.50
2022-12-28T13:45:46.202Z,9.60
2022-12-28T13:47:00.203Z,9.60
2022-12-28T13:48:07.188Z,9.60
2022-12-28T13:49:12.210Z,9.60
2022-12-28T13:50:20.675Z,9.60
2022-12-28T13:51:24.861Z,9.60
2022-12-28T13:52:43.137Z,9.70
2022-12-28T13:53:50.481Z,9.70
2022-12-28T13:55:00.675Z,9.70
2022-12-28T13:56:07.330Z,9.70
2022-12-28T13:57:45.167Z,9.70
2022-12-28T13:58:48.428Z,9.70
2022-12-28T13:59:58.870Z,9.70
2022-12-28T14:01:09.474Z,9.70
2022-12-28T14:02:18.658Z,9.80
2022-12-28T14:03:23.824Z,9.80
2022-12-28T14:06:01.427Z,9.80
2022-12-28T14:07:12.182Z,9.80
2022-12-28T14:08:17.301Z,9.90
2022-12-28T14:09:24.072Z,9.90
2022-12-28T14:10:29.442Z,9.90
2022-12-28T14:11:34.114Z,9.90
2022-12-28T14:12:39.865Z,9.90
2022-12-28T14:13:47.177Z,9.90
2022-12-28T14:14:54.194Z,9.90
2022-12-28T14:15:59.081Z,9.90
2022-12-28T14:17:05.597Z,9.90
2022-12-28T14:18:12.522Z,9.90
2022-12-28T14:19:17.537Z,9.90
2022-12-28T14:20:23.657Z,9.90
2022-12-28T14:21:36.075Z,9.90
2022-12-28T14:22:44.524Z,9.90
2022-12-28T14:23:48.941Z,9.90
2022-12-28T14:25:11.121Z,9.90
2022-12-28T14:26:22.729Z,9.90
2022-12-28T14:27:27.899Z,9.90
2022-12-28T14:28:39.653Z,9.90
2022-12-28T14:29:44.568Z,9.90
2022-12-28T14:30:54.038Z,9.90
2022-12-28T14:32:04.616Z,9.90
2022-12-28T14:33:24.602Z,9.90
2022-12-28T14:34:33.374Z,9.90
2022-12-28T14:35:37.321Z,9.90
2022-12-28T14:36:49.908Z,9.90
2022-12-28T14:37:58.980Z,9.90
2022-12-28T14:39:05.224Z,9.90
2022-12-28T14:40:33.349Z,9.90
2022-12-28T14:41:41.905Z,9.90
2022-12-28T14:42:52.004Z,9.90
2022-12-28T14:43:59.339Z,9.90
2022-12-28T14:47:05.611Z,9.90
2022-12-28T14:48:36.139Z,9.90
2022-12-28T14:49:45.733Z,9.90
2022-12-28T14:51:02.928Z,9.90
2022-12-28T14:52:38.177Z,9.90
2022-12-28T14:53:45.311Z,9.80
2022-12-28T14:54:50.655Z,9.80
2022-12-28T14:56:16.687Z,9.80
2022-12-28T14:57:29.778Z,9.80
2022-12-28T14:58:50.853Z,9.90
2022-12-28T15:00:00.969Z,9.80
2022-12-28T15:00:16.210Z,9.90
2022-12-28T15:01:09.868Z,9.80
2022-12-28T15:02:44.089Z,9.80
2022-12-28T15:03:54.678Z,9.80
2022-12-28T15:05:00.785Z,9.80
2022-12-28T15:06:07.001Z,9.80
2022-12-28T15:07:12.183Z,9.80
2022-12-28T15:08:17.911Z,9.80
2022-12-28T15:09:22.183Z,9.80
2022-12-28T15:10:27.710Z,9.80
2022-12-28T15:11:35.245Z,9.80
2022-12-28T15:12:39.657Z,9.80
2022-12-28T15:13:45.144Z,9.80
2022-12-28T15:14:49.551Z,9.80
2022-12-28T15:15:59.696Z,9.80
2022-12-28T15:17:05.058Z,9.70
2022-12-28T15:18:12.178Z,9.70
2022-12-28T15:19:17.230Z,9.70
2022-12-28T15:20:21.132Z,9.70
2022-12-28T15:21:26.984Z,9.70
2022-12-28T15:22:31.186Z,9.70
2022-12-28T15:23:36.694Z,9.70
2022-12-28T15:24:41.919Z,9.70
2022-12-28T15:25:47.510Z,9.70
2022-12-28T15:26:50.230Z,9.70
2022-12-28T15:27:54.566Z,9.70
2022-12-28T15:28:57.096Z,9.70
2022-12-28T15:30:09.801Z,9.70
2022-12-28T15:31:18.070Z,9.60
2022-12-28T15:32:20.997Z,9.60
2022-12-28T15:33:26.184Z,9.60
2022-12-28T15:34:28.885Z,9.60
2022-12-28T15:35:33.995Z,9.60